sensor_id;sensor_type;location;lat;lon;timestamp;temperature;humidity
21772;DHT22;11047;47.904;8.110;2023-07-30T00:00:32;16.80;99.90
21772;DHT22;11047;47.904;8.110;2023-07-30T00:02:59;16.80;99.90
21772;DHT22;11047;47.904;8.110;2023-07-30T00:05:25;16.80;99.90
21772;DHT22;11047;47.904;8.110;2023-07-30T00:07:52;16.80;99.90
21772;DHT22;11047;47.904;8.110;2023-07-30T00:10:20;16.80;99.90
21772;DHT22;11047;47.904;8.110;2023-07-30T00:12:47;16.80;99.90
21772;DHT22;11047;47.904;8.110;2023-07-30T00:15:16;16.80;99.90
21772;DHT22;11047;47.904;8.110;2023-07-30T00:17:42;16.80;99.90
21772;DHT22;11047;47.904;8.110;2023-07-30T00:20:10;16.70;99.90
21772;DHT22;11047;47.904;8.110;2023-07-30T00:22:37;16.70;99.90
21772;DHT22;11047;47.904;8.110;2023-07-30T00:25:04;16.70;99.90
21772;DHT22;11047;47.904;8.110;2023-07-30T00:27:31;16.70;99.90
21772;DHT22;11047;47.904;8.110;2023-07-30T00:29:58;16.70;99.90
21772;DHT22;11047;47.904;8.110;2023-07-30T00:32:27;16.70;99.90
21772;DHT22;11047;47.904;8.110;2023-07-30T00:34:54;16.70;99.90
21772;DHT22;11047;47.904;8.110;2023-07-30T00:37:21;16.70;99.90
21772;DHT22;11047;47.904;8.110;2023-07-30T00:39:47;16.70;99.90
21772;DHT22;11047;47.904;8.110;2023-07-30T00:42:14;16.70;99.90
21772;DHT22;11047;47.904;8.110;2023-07-30T00:44:41;16.70;99.90
21772;DHT22;11047;47.904;8.110;2023-07-30T00:47:09;16.80;99.90
21772;DHT22;11047;47.904;8.110;2023-07-30T00:49:37;16.70;99.90
21772;DHT22;11047;47.904;8.110;2023-07-30T00:52:05;16.70;99.90
21772;DHT22;11047;47.904;8.110;2023-07-30T00:54:33;16.70;99.90
21772;DHT22;11047;47.904;8.110;2023-07-30T00:57:00;16.70;99.90
21772;DHT22;11047;47.904;8.110;2023-07-30T00:59:27;16.60;99.90
21772;DHT22;11047;47.904;8.110;2023-07-30T01:01:56;16.60;99.90
21772;DHT22;11047;47.904;8.110;2023-07-30T01:04:24;16.60;99.90
21772;DHT22;11047;47.904;8.110;2023-07-30T01:06:52;16.60;99.90
21772;DHT22;11047;47.904;8.110;2023-07-30T01:09:19;16.60;99.90
21772;DHT22;11047;47.904;8.110;2023-07-30T01:11:46;16.60;99.90
21772;DHT22;11047;47.904;8.110;2023-07-30T01:14:14;16.60;99.90
21772;DHT22;11047;47.904;8.110;2023-07-30T01:16:44;16.60;99.90
21772;DHT22;11047;47.904;8.110;2023-07-30T01:19:11;16.60;99.90
21772;DHT22;11047;47.904;8.110;2023-07-30T01:21:39;16.60;99.90
21772;DHT22;11047;47.904;8.110;2023-07-30T01:24:06;16.60;99.90
21772;DHT22;11047;47.904;8.110;2023-07-30T01:26:37;16.50;99.90
21772;DHT22;11047;47.904;8.110;2023-07-30T01:29:09;16.50;99.90
21772;DHT22;11047;47.904;8.110;2023-07-30T01:35:00;16.60;99.90
21772;DHT22;11047;47.904;8.110;2023-07-30T01:37:30;16.60;99.90
21772;DHT22;11047;47.904;8.110;2023-07-30T01:39:57;16.50;99.90
21772;DHT22;11047;47.904;8.110;2023-07-30T01:42:28;16.50;99.90
21772;DHT22;11047;47.904;8.110;2023-07-30T01:44:55;16.30;99.90
21772;DHT22;11047;47.904;8.110;2023-07-30T01:47:22;16.20;99.90
21772;DHT22;11047;47.904;8.110;2023-07-30T01:49:49;16.20;99.90
21772;DHT22;11047;47.904;8.110;2023-07-30T01:52:16;16.30;99.90
21772;DHT22;11047;47.904;8.110;2023-07-30T01:54:44;16.20;99.90
21772;DHT22;11047;47.904;8.110;2023-07-30T01:57:11;16.10;99.90
21772;DHT22;11047;47.904;8.110;2023-07-30T01:59:38;16.10;99.90
21772;DHT22;11047;47.904;8.110;2023-07-30T02:02:05;16.10;99.90
21772;DHT22;11047;47.904;8.110;2023-07-30T02:04:33;16.10;99.90
21772;DHT22;11047;47.904;8.110;2023-07-30T02:07:00;16.10;99.90
21772;DHT22;11047;47.904;8.110;2023-07-30T02:09:27;16.00;99.90
21772;DHT22;11047;47.904;8.110;2023-07-30T02:11:55;16.00;99.90
21772;DHT22;11047;47.904;8.110;2023-07-30T02:14:22;16.00;99.90
21772;DHT22;11047;47.904;8.110;2023-07-30T02:16:49;16.00;99.90
21772;DHT22;11047;47.904;8.110;2023-07-30T02:19:16;16.10;99.90
21772;DHT22;11047;47.904;8.110;2023-07-30T02:21:43;16.20;99.90
21772;DHT22;11047;47.904;8.110;2023-07-30T02:24:10;16.20;99.90
21772;DHT22;11047;47.904;8.110;2023-07-30T02:26:39;16.20;99.90
21772;DHT22;11047;47.904;8.110;2023-07-30T02:29:07;16.30;99.90
21772;DHT22;11047;47.904;8.110;2023-07-30T02:31:34;16.30;99.90
21772;DHT22;11047;47.904;8.110;2023-07-30T02:34:01;16.30;99.90
21772;DHT22;11047;47.904;8.110;2023-07-30T02:36:28;16.30;99.90
21772;DHT22;11047;47.904;8.110;2023-07-30T02:38:55;16.30;99.90
21772;DHT22;11047;47.904;8.110;2023-07-30T02:41:22;16.30;99.90
21772;DHT22;11047;47.904;8.110;2023-07-30T02:43:49;16.40;99.90
21772;DHT22;11047;47.904;8.110;2023-07-30T02:46:17;16.30;99.90
21772;DHT22;11047;47.904;8.110;2023-07-30T02:48:44;16.20;99.90
21772;DHT22;11047;47.904;8.110;2023-07-30T02:51:11;16.10;99.90
21772;DHT22;11047;47.904;8.110;2023-07-30T02:53:38;16.10;99.90
21772;DHT22;11047;47.904;8.110;2023-07-30T02:56:05;16.10;99.90
21772;DHT22;11047;47.904;8.110;2023-07-30T02:58:32;16.20;99.90
21772;DHT22;11047;47.904;8.110;2023-07-30T03:01:05;16.20;99.90
21772;DHT22;11047;47.904;8.110;2023-07-30T03:03:34;16.10;99.90
21772;DHT22;11047;47.904;8.110;2023-07-30T03:06:01;16.20;99.90
21772;DHT22;11047;47.904;8.110;2023-07-30T03:08:28;16.20;99.90
21772;DHT22;11047;47.904;8.110;2023-07-30T03:10:57;16.30;99.90
21772;DHT22;11047;47.904;8.110;2023-07-30T03:13:24;16.20;99.90
21772;DHT22;11047;47.904;8.110;2023-07-30T03:15:51;16.20;99.90
21772;DHT22;11047;47.904;8.110;2023-07-30T03:18:19;16.30;99.90
21772;DHT22;11047;47.904;8.110;2023-07-30T03:20:47;16.20;99.90
21772;DHT22;11047;47.904;8.110;2023-07-30T03:23:14;16.20;99.90
21772;DHT22;11047;47.904;8.110;2023-07-30T03:25:41;16.30;99.90
21772;DHT22;11047;47.904;8.110;2023-07-30T03:28:08;16.30;99.90
21772;DHT22;11047;47.904;8.110;2023-07-30T03:30:35;16.30;99.90
21772;DHT22;11047;47.904;8.110;2023-07-30T03:33:01;16.40;99.90
21772;DHT22;11047;47.904;8.110;2023-07-30T03:35:28;16.40;99.90
21772;DHT22;11047;47.904;8.110;2023-07-30T03:37:57;16.40;99.90
21772;DHT22;11047;47.904;8.110;2023-07-30T03:40:24;16.40;99.90
21772;DHT22;11047;47.904;8.110;2023-07-30T03:42:51;16.40;99.90
21772;DHT22;11047;47.904;8.110;2023-07-30T03:45:18;16.40;99.90
21772;DHT22;11047;47.904;8.110;2023-07-30T03:47:45;16.40;99.90
21772;DHT22;11047;47.904;8.110;2023-07-30T03:50:12;16.30;99.90
21772;DHT22;11047;47.904;8.110;2023-07-30T03:52:39;16.40;99.90
21772;DHT22;11047;47.904;8.110;2023-07-30T03:55:07;16.30;99.90
21772;DHT22;11047;47.904;8.110;2023-07-30T03:57:34;16.30;99.90
21772;DHT22;11047;47.904;8.110;2023-07-30T04:00:02;16.20;99.90
21772;DHT22;11047;47.904;8.110;2023-07-30T04:02:29;16.10;99.90
21772;DHT22;11047;47.904;8.110;2023-07-30T04:04:56;16.10;99.90
21772;DHT22;11047;47.904;8.110;2023-07-30T04:07:23;16.10;99.90
21772;DHT22;11047;47.904;8.110;2023-07-30T04:09:50;16.00;99.90
21772;DHT22;11047;47.904;8.110;2023-07-30T04:12:19;16.00;99.90
21772;DHT22;11047;47.904;8.110;2023-07-30T04:14:47;15.90;99.90
21772;DHT22;11047;47.904;8.110;2023-07-30T04:17:13;15.90;99.90
21772;DHT22;11047;47.904;8.110;2023-07-30T04:19:40;15.90;99.90
21772;DHT22;11047;47.904;8.110;2023-07-30T04:22:07;15.90;99.90
21772;DHT22;11047;47.904;8.110;2023-07-30T04:24:34;15.90;99.90
21772;DHT22;11047;47.904;8.110;2023-07-30T04:27:01;15.80;99.90
21772;DHT22;11047;47.904;8.110;2023-07-30T04:29:30;15.90;99.90
21772;DHT22;11047;47.904;8.110;2023-07-30T04:31:57;15.90;99.90
21772;DHT22;11047;47.904;8.110;2023-07-30T04:34:23;16.00;99.90
21772;DHT22;11047;47.904;8.110;2023-07-30T04:36:50;16.10;99.90
21772;DHT22;11047;47.904;8.110;2023-07-30T04:39:17;16.10;99.90
21772;DHT22;11047;47.904;8.110;2023-07-30T04:41:44;16.20;99.90
21772;DHT22;11047;47.904;8.110;2023-07-30T04:44:11;16.20;99.90
21772;DHT22;11047;47.904;8.110;2023-07-30T04:46:39;16.30;99.90
21772;DHT22;11047;47.904;8.110;2023-07-30T04:49:06;16.40;99.90
21772;DHT22;11047;47.904;8.110;2023-07-30T04:51:33;16.50;99.90
21772;DHT22;11047;47.904;8.110;2023-07-30T04:54:00;16.50;99.90
21772;DHT22;11047;47.904;8.110;2023-07-30T04:56:27;16.50;99.90
21772;DHT22;11047;47.904;8.110;2023-07-30T04:58:54;16.60;99.90
21772;DHT22;11047;47.904;8.110;2023-07-30T05:01:21;16.60;99.90
21772;DHT22;11047;47.904;8.110;2023-07-30T05:03:49;16.60;99.90
21772;DHT22;11047;47.904;8.110;2023-07-30T05:06:16;16.70;99.90
21772;DHT22;11047;47.904;8.110;2023-07-30T05:08:43;16.70;99.90
21772;DHT22;11047;47.904;8.110;2023-07-30T05:11:10;16.70;99.90
21772;DHT22;11047;47.904;8.110;2023-07-30T05:13:37;16.80;99.90
21772;DHT22;11047;47.904;8.110;2023-07-30T05:16:04;16.80;99.90
21772;DHT22;11047;47.904;8.110;2023-07-30T05:18:31;16.90;99.90
21772;DHT22;11047;47.904;8.110;2023-07-30T05:20:59;16.80;99.90
21772;DHT22;11047;47.904;8.110;2023-07-30T05:23:26;17.00;99.90
21772;DHT22;11047;47.904;8.110;2023-07-30T05:25:53;17.00;99.90
21772;DHT22;11047;47.904;8.110;2023-07-30T05:28:20;17.00;99.90
21772;DHT22;11047;47.904;8.110;2023-07-30T05:30:47;17.00;99.90
21772;DHT22;11047;47.904;8.110;2023-07-30T05:33:14;17.00;99.90
21772;DHT22;11047;47.904;8.110;2023-07-30T05:35:41;17.00;99.90
21772;DHT22;11047;47.904;8.110;2023-07-30T05:38:09;17.00;99.90
21772;DHT22;11047;47.904;8.110;2023-07-30T05:40:36;16.90;99.90
21772;DHT22;11047;47.904;8.110;2023-07-30T05:43:03;17.00;99.90
21772;DHT22;11047;47.904;8.110;2023-07-30T05:45:30;17.00;99.90
21772;DHT22;11047;47.904;8.110;2023-07-30T05:47:57;17.00;99.90
21772;DHT22;11047;47.904;8.110;2023-07-30T05:50:24;17.00;99.90
21772;DHT22;11047;47.904;8.110;2023-07-30T05:52:51;17.00;99.90
21772;DHT22;11047;47.904;8.110;2023-07-30T05:55:19;17.00;99.90
21772;DHT22;11047;47.904;8.110;2023-07-30T05:57:46;17.00;99.90
21772;DHT22;11047;47.904;8.110;2023-07-30T06:00:13;17.00;99.90
21772;DHT22;11047;47.904;8.110;2023-07-30T06:02:40;16.90;99.90
21772;DHT22;11047;47.904;8.110;2023-07-30T06:05:07;17.00;99.90
21772;DHT22;11047;47.904;8.110;2023-07-30T06:07:34;17.00;99.90
21772;DHT22;11047;47.904;8.110;2023-07-30T06:10:01;17.00;99.90
21772;DHT22;11047;47.904;8.110;2023-07-30T06:12:30;17.20;99.90
21772;DHT22;11047;47.904;8.110;2023-07-30T06:14:57;17.20;99.90
21772;DHT22;11047;47.904;8.110;2023-07-30T06:17:24;17.10;99.90
21772;DHT22;11047;47.904;8.110;2023-07-30T06:19:51;17.00;99.90
21772;DHT22;11047;47.904;8.110;2023-07-30T06:22:17;17.00;99.90
21772;DHT22;11047;47.904;8.110;2023-07-30T06:24:44;17.10;99.90
21772;DHT22;11047;47.904;8.110;2023-07-30T06:27:11;17.20;99.90
21772;DHT22;11047;47.904;8.110;2023-07-30T06:29:40;17.30;99.90
21772;DHT22;11047;47.904;8.110;2023-07-30T06:32:07;17.40;99.90
21772;DHT22;11047;47.904;8.110;2023-07-30T06:34:34;17.30;99.90
21772;DHT22;11047;47.904;8.110;2023-07-30T06:37:01;17.20;99.90
21772;DHT22;11047;47.904;8.110;2023-07-30T06:39:28;17.20;99.90
21772;DHT22;11047;47.904;8.110;2023-07-30T06:41:55;17.20;99.90
21772;DHT22;11047;47.904;8.110;2023-07-30T06:44:22;17.20;99.90
21772;DHT22;11047;47.904;8.110;2023-07-30T06:46:52;17.20;99.90
21772;DHT22;11047;47.904;8.110;2023-07-30T06:49:19;17.10;99.90
21772;DHT22;11047;47.904;8.110;2023-07-30T06:51:46;17.10;99.90
21772;DHT22;11047;47.904;8.110;2023-07-30T06:54:13;17.00;99.90
21772;DHT22;11047;47.904;8.110;2023-07-30T06:56:40;17.00;99.90
21772;DHT22;11047;47.904;8.110;2023-07-30T06:59:07;17.00;99.90
21772;DHT22;11047;47.904;8.110;2023-07-30T07:01:34;17.10;99.90
21772;DHT22;11047;47.904;8.110;2023-07-30T07:04:02;17.00;99.90
21772;DHT22;11047;47.904;8.110;2023-07-30T07:06:29;17.00;99.90
21772;DHT22;11047;47.904;8.110;2023-07-30T07:08:56;17.00;99.90
21772;DHT22;11047;47.904;8.110;2023-07-30T07:11:23;17.10;99.90
21772;DHT22;11047;47.904;8.110;2023-07-30T07:13:50;17.00;99.90
21772;DHT22;11047;47.904;8.110;2023-07-30T07:16:17;17.10;99.90
21772;DHT22;11047;47.904;8.110;2023-07-30T07:18:44;17.10;99.90
21772;DHT22;11047;47.904;8.110;2023-07-30T07:21:12;17.10;99.90
21772;DHT22;11047;47.904;8.110;2023-07-30T07:23:39;17.10;99.90
21772;DHT22;11047;47.904;8.110;2023-07-30T07:26:06;17.10;99.90
21772;DHT22;11047;47.904;8.110;2023-07-30T07:28:33;17.10;99.90
21772;DHT22;11047;47.904;8.110;2023-07-30T07:31:00;17.30;99.90
21772;DHT22;11047;47.904;8.110;2023-07-30T07:33:27;17.40;99.90
21772;DHT22;11047;47.904;8.110;2023-07-30T07:36:03;17.50;99.90
21772;DHT22;11047;47.904;8.110;2023-07-30T07:38:33;17.60;99.90
21772;DHT22;11047;47.904;8.110;2023-07-30T07:41:00;17.80;99.90
21772;DHT22;11047;47.904;8.110;2023-07-30T07:43:27;17.90;99.90
21772;DHT22;11047;47.904;8.110;2023-07-30T07:45:54;17.90;99.90
21772;DHT22;11047;47.904;8.110;2023-07-30T07:48:21;17.80;99.90
21772;DHT22;11047;47.904;8.110;2023-07-30T07:50:48;17.90;99.90
21772;DHT22;11047;47.904;8.110;2023-07-30T07:53:15;17.80;99.90
21772;DHT22;11047;47.904;8.110;2023-07-30T07:55:43;17.80;99.90
21772;DHT22;11047;47.904;8.110;2023-07-30T07:58:10;17.80;99.90
21772;DHT22;11047;47.904;8.110;2023-07-30T08:00:37;17.90;99.90
21772;DHT22;11047;47.904;8.110;2023-07-30T08:03:04;17.80;99.90
21772;DHT22;11047;47.904;8.110;2023-07-30T08:05:31;18.10;99.90
21772;DHT22;11047;47.904;8.110;2023-07-30T08:07:58;18.20;99.90
21772;DHT22;11047;47.904;8.110;2023-07-30T08:10:25;18.20;99.90
21772;DHT22;11047;47.904;8.110;2023-07-30T08:12:53;18.20;99.90
21772;DHT22;11047;47.904;8.110;2023-07-30T08:15:20;18.20;99.90
21772;DHT22;11047;47.904;8.110;2023-07-30T08:17:47;18.40;99.90
21772;DHT22;11047;47.904;8.110;2023-07-30T08:20:14;18.30;99.90
21772;DHT22;11047;47.904;8.110;2023-07-30T08:22:41;18.30;99.90
21772;DHT22;11047;47.904;8.110;2023-07-30T08:25:08;18.10;99.90
21772;DHT22;11047;47.904;8.110;2023-07-30T08:27:35;18.00;99.90
21772;DHT22;11047;47.904;8.110;2023-07-30T08:30:05;18.30;99.90
21772;DHT22;11047;47.904;8.110;2023-07-30T08:32:33;18.50;99.90
21772;DHT22;11047;47.904;8.110;2023-07-30T08:35:00;18.30;99.90
21772;DHT22;11047;47.904;8.110;2023-07-30T08:37:27;18.30;99.90
21772;DHT22;11047;47.904;8.110;2023-07-30T08:39:54;18.70;99.90
21772;DHT22;11047;47.904;8.110;2023-07-30T08:42:20;18.50;99.90
21772;DHT22;11047;47.904;8.110;2023-07-30T08:44:47;18.80;99.90
21772;DHT22;11047;47.904;8.110;2023-07-30T08:47:16;18.70;99.90
21772;DHT22;11047;47.904;8.110;2023-07-30T08:49:43;18.50;99.90
21772;DHT22;11047;47.904;8.110;2023-07-30T08:52:10;18.50;99.90
21772;DHT22;11047;47.904;8.110;2023-07-30T08:54:38;18.90;99.90
21772;DHT22;11047;47.904;8.110;2023-07-30T08:57:06;18.80;99.90
21772;DHT22;11047;47.904;8.110;2023-07-30T08:59:42;18.60;99.90
21772;DHT22;11047;47.904;8.110;2023-07-30T09:02:19;18.50;99.90
21772;DHT22;11047;47.904;8.110;2023-07-30T09:04:53;18.60;99.90
21772;DHT22;11047;47.904;8.110;2023-07-30T09:07:20;18.60;99.90
21772;DHT22;11047;47.904;8.110;2023-07-30T09:09:47;18.50;99.90
21772;DHT22;11047;47.904;8.110;2023-07-30T09:12:14;18.40;99.90
21772;DHT22;11047;47.904;8.110;2023-07-30T09:14:42;18.40;99.90
21772;DHT22;11047;47.904;8.110;2023-07-30T09:17:10;18.40;99.90
21772;DHT22;11047;47.904;8.110;2023-07-30T09:19:37;18.20;99.90
21772;DHT22;11047;47.904;8.110;2023-07-30T09:22:06;18.30;99.90
21772;DHT22;11047;47.904;8.110;2023-07-30T09:24:33;18.10;99.90
21772;DHT22;11047;47.904;8.110;2023-07-30T09:27:02;18.10;99.90
21772;DHT22;11047;47.904;8.110;2023-07-30T09:29:29;18.10;99.90
21772;DHT22;11047;47.904;8.110;2023-07-30T09:31:56;18.10;99.90
21772;DHT22;11047;47.904;8.110;2023-07-30T09:34:24;18.10;99.90
21772;DHT22;11047;47.904;8.110;2023-07-30T09:36:52;18.20;99.90
21772;DHT22;11047;47.904;8.110;2023-07-30T09:39:24;18.40;99.90
21772;DHT22;11047;47.904;8.110;2023-07-30T09:41:52;18.60;99.90
21772;DHT22;11047;47.904;8.110;2023-07-30T09:44:20;18.50;99.90
21772;DHT22;11047;47.904;8.110;2023-07-30T09:46:48;18.40;99.90
21772;DHT22;11047;47.904;8.110;2023-07-30T09:49:15;18.30;99.90
21772;DHT22;11047;47.904;8.110;2023-07-30T09:51:43;18.50;99.90
21772;DHT22;11047;47.904;8.110;2023-07-30T09:54:11;18.80;99.90
21772;DHT22;11047;47.904;8.110;2023-07-30T09:56:41;18.90;99.90
21772;DHT22;11047;47.904;8.110;2023-07-30T09:59:09;19.00;99.90
21772;DHT22;11047;47.904;8.110;2023-07-30T10:01:40;18.90;99.90
21772;DHT22;11047;47.904;8.110;2023-07-30T10:04:09;19.10;99.90
21772;DHT22;11047;47.904;8.110;2023-07-30T10:06:39;19.00;99.90
21772;DHT22;11047;47.904;8.110;2023-07-30T10:09:09;18.70;99.90
21772;DHT22;11047;47.904;8.110;2023-07-30T10:11:37;18.70;99.90
21772;DHT22;11047;47.904;8.110;2023-07-30T10:14:06;18.60;99.90
21772;DHT22;11047;47.904;8.110;2023-07-30T10:16:34;19.10;99.90
21772;DHT22;11047;47.904;8.110;2023-07-30T10:19:02;19.30;99.90
21772;DHT22;11047;47.904;8.110;2023-07-30T10:21:31;18.60;99.90
21772;DHT22;11047;47.904;8.110;2023-07-30T10:24:00;18.60;99.90
21772;DHT22;11047;47.904;8.110;2023-07-30T10:26:28;18.30;99.90
21772;DHT22;11047;47.904;8.110;2023-07-30T10:29:13;18.70;99.90
21772;DHT22;11047;47.904;8.110;2023-07-30T10:31:40;19.10;99.90
21772;DHT22;11047;47.904;8.110;2023-07-30T10:34:09;19.30;99.90
21772;DHT22;11047;47.904;8.110;2023-07-30T10:36:43;19.90;99.90
21772;DHT22;11047;47.904;8.110;2023-07-30T10:39:12;20.60;99.90
21772;DHT22;11047;47.904;8.110;2023-07-30T10:41:40;20.50;99.90
21772;DHT22;11047;47.904;8.110;2023-07-30T10:44:07;20.30;99.90
21772;DHT22;11047;47.904;8.110;2023-07-30T10:46:45;20.30;99.90
21772;DHT22;11047;47.904;8.110;2023-07-30T10:49:12;20.70;99.90
21772;DHT22;11047;47.904;8.110;2023-07-30T10:51:39;20.60;99.90
21772;DHT22;11047;47.904;8.110;2023-07-30T10:54:07;20.70;99.90
21772;DHT22;11047;47.904;8.110;2023-07-30T10:56:36;20.80;99.90
21772;DHT22;11047;47.904;8.110;2023-07-30T10:59:04;20.70;99.90
21772;DHT22;11047;47.904;8.110;2023-07-30T11:01:36;21.10;99.90
21772;DHT22;11047;47.904;8.110;2023-07-30T11:04:27;21.40;99.90
21772;DHT22;11047;47.904;8.110;2023-07-30T11:06:54;21.80;99.90
21772;DHT22;11047;47.904;8.110;2023-07-30T11:09:22;22.00;99.90
21772;DHT22;11047;47.904;8.110;2023-07-30T11:11:50;22.20;99.90
21772;DHT22;11047;47.904;8.110;2023-07-30T11:14:18;22.40;99.90
21772;DHT22;11047;47.904;8.110;2023-07-30T11:16:49;22.50;99.90
21772;DHT22;11047;47.904;8.110;2023-07-30T11:19:17;21.60;99.90
21772;DHT22;11047;47.904;8.110;2023-07-30T11:21:49;21.60;99.90
21772;DHT22;11047;47.904;8.110;2023-07-30T11:24:17;21.50;99.90
21772;DHT22;11047;47.904;8.110;2023-07-30T11:26:43;21.20;99.90
21772;DHT22;11047;47.904;8.110;2023-07-30T11:29:14;20.60;99.90
21772;DHT22;11047;47.904;8.110;2023-07-30T11:31:43;20.50;99.90
21772;DHT22;11047;47.904;8.110;2023-07-30T11:34:10;20.20;99.90
21772;DHT22;11047;47.904;8.110;2023-07-30T11:36:37;20.30;99.90
21772;DHT22;11047;47.904;8.110;2023-07-30T11:39:08;20.30;99.90
21772;DHT22;11047;47.904;8.110;2023-07-30T11:41:35;20.50;99.90
21772;DHT22;11047;47.904;8.110;2023-07-30T11:44:03;21.00;99.90
21772;DHT22;11047;47.904;8.110;2023-07-30T11:46:31;20.70;99.90
21772;DHT22;11047;47.904;8.110;2023-07-30T11:49:11;20.70;99.90
21772;DHT22;11047;47.904;8.110;2023-07-30T11:51:38;20.80;99.90
21772;DHT22;11047;47.904;8.110;2023-07-30T11:54:18;20.60;99.90
21772;DHT22;11047;47.904;8.110;2023-07-30T11:56:45;20.90;99.90
21772;DHT22;11047;47.904;8.110;2023-07-30T11:59:12;20.90;99.90
21772;DHT22;11047;47.904;8.110;2023-07-30T12:01:42;20.80;99.90
21772;DHT22;11047;47.904;8.110;2023-07-30T12:04:09;20.50;99.90
21772;DHT22;11047;47.904;8.110;2023-07-30T12:06:40;20.00;99.90
21772;DHT22;11047;47.904;8.110;2023-07-30T12:09:12;20.20;99.90
21772;DHT22;11047;47.904;8.110;2023-07-30T12:11:47;20.00;99.90
21772;DHT22;11047;47.904;8.110;2023-07-30T12:14:14;20.10;99.90
21772;DHT22;11047;47.904;8.110;2023-07-30T12:16:41;19.90;99.90
21772;DHT22;11047;47.904;8.110;2023-07-30T12:19:08;20.00;99.90
21772;DHT22;11047;47.904;8.110;2023-07-30T12:21:35;20.20;99.90
21772;DHT22;11047;47.904;8.110;2023-07-30T12:24:02;20.10;99.90
21772;DHT22;11047;47.904;8.110;2023-07-30T12:26:31;19.80;99.90
21772;DHT22;11047;47.904;8.110;2023-07-30T12:28:58;20.00;99.90
21772;DHT22;11047;47.904;8.110;2023-07-30T12:31:25;20.40;99.90
21772;DHT22;11047;47.904;8.110;2023-07-30T12:33:52;20.70;99.90
21772;DHT22;11047;47.904;8.110;2023-07-30T12:36:19;21.30;99.90
21772;DHT22;11047;47.904;8.110;2023-07-30T12:38:45;21.80;99.90
21772;DHT22;11047;47.904;8.110;2023-07-30T12:41:12;21.60;99.90
21772;DHT22;11047;47.904;8.110;2023-07-30T12:43:41;21.20;99.90
21772;DHT22;11047;47.904;8.110;2023-07-30T12:46:08;21.00;99.90
21772;DHT22;11047;47.904;8.110;2023-07-30T12:48:35;20.60;99.90
21772;DHT22;11047;47.904;8.110;2023-07-30T12:51:02;20.60;99.90
21772;DHT22;11047;47.904;8.110;2023-07-30T12:53:29;20.40;99.90
21772;DHT22;11047;47.904;8.110;2023-07-30T12:55:56;20.20;99.90
21772;DHT22;11047;47.904;8.110;2023-07-30T12:58:23;20.10;99.90
21772;DHT22;11047;47.904;8.110;2023-07-30T13:00:51;20.20;99.90
21772;DHT22;11047;47.904;8.110;2023-07-30T13:03:18;20.20;99.90
21772;DHT22;11047;47.904;8.110;2023-07-30T13:05:45;20.40;99.90
21772;DHT22;11047;47.904;8.110;2023-07-30T13:08:12;20.40;99.90
21772;DHT22;11047;47.904;8.110;2023-07-30T13:10:49;20.80;99.90
21772;DHT22;11047;47.904;8.110;2023-07-30T13:13:16;20.60;99.90
21772;DHT22;11047;47.904;8.110;2023-07-30T13:15:43;20.50;99.90
21772;DHT22;11047;47.904;8.110;2023-07-30T13:18:11;20.20;99.90
21772;DHT22;11047;47.904;8.110;2023-07-30T13:20:38;19.80;99.90
21772;DHT22;11047;47.904;8.110;2023-07-30T13:23:05;19.80;99.90
21772;DHT22;11047;47.904;8.110;2023-07-30T13:25:32;20.10;99.90
21772;DHT22;11047;47.904;8.110;2023-07-30T13:27:59;20.30;99.90
21772;DHT22;11047;47.904;8.110;2023-07-30T13:30:26;20.10;99.90
21772;DHT22;11047;47.904;8.110;2023-07-30T13:32:53;20.20;99.90
21772;DHT22;11047;47.904;8.110;2023-07-30T13:35:22;20.10;99.90
21772;DHT22;11047;47.904;8.110;2023-07-30T13:37:49;20.10;99.90
21772;DHT22;11047;47.904;8.110;2023-07-30T13:40:15;19.90;99.90
21772;DHT22;11047;47.904;8.110;2023-07-30T13:42:42;20.00;99.90
21772;DHT22;11047;47.904;8.110;2023-07-30T13:45:09;20.00;99.90
21772;DHT22;11047;47.904;8.110;2023-07-30T13:47:36;19.90;99.90
21772;DHT22;11047;47.904;8.110;2023-07-30T13:50:04;19.90;99.90
21772;DHT22;11047;47.904;8.110;2023-07-30T13:52:34;19.50;99.90
21772;DHT22;11047;47.904;8.110;2023-07-30T13:55:01;19.60;99.90
21772;DHT22;11047;47.904;8.110;2023-07-30T13:57:28;19.30;99.90
21772;DHT22;11047;47.904;8.110;2023-07-30T13:59:55;19.70;99.90
21772;DHT22;11047;47.904;8.110;2023-07-30T14:02:22;20.00;99.90
21772;DHT22;11047;47.904;8.110;2023-07-30T14:04:49;19.70;99.90
21772;DHT22;11047;47.904;8.110;2023-07-30T14:07:16;19.70;99.90
21772;DHT22;11047;47.904;8.110;2023-07-30T14:09:44;20.10;99.90
21772;DHT22;11047;47.904;8.110;2023-07-30T14:12:11;20.10;99.90
21772;DHT22;11047;47.904;8.110;2023-07-30T14:14:38;20.20;99.90
21772;DHT22;11047;47.904;8.110;2023-07-30T14:17:05;20.00;99.90
21772;DHT22;11047;47.904;8.110;2023-07-30T14:19:32;19.90;99.90
21772;DHT22;11047;47.904;8.110;2023-07-30T14:21:59;19.60;99.90
21772;DHT22;11047;47.904;8.110;2023-07-30T14:24:26;19.60;99.90
21772;DHT22;11047;47.904;8.110;2023-07-30T14:26:55;19.70;99.90
21772;DHT22;11047;47.904;8.110;2023-07-30T14:29:22;19.70;99.90
21772;DHT22;11047;47.904;8.110;2023-07-30T14:31:49;19.60;99.90
21772;DHT22;11047;47.904;8.110;2023-07-30T14:34:16;19.60;99.90
21772;DHT22;11047;47.904;8.110;2023-07-30T14:36:43;19.40;99.90
21772;DHT22;11047;47.904;8.110;2023-07-30T14:39:10;19.40;99.90
21772;DHT22;11047;47.904;8.110;2023-07-30T14:41:37;19.50;99.90
21772;DHT22;11047;47.904;8.110;2023-07-30T14:44:06;19.50;99.90
21772;DHT22;11047;47.904;8.110;2023-07-30T14:46:33;19.80;99.90
21772;DHT22;11047;47.904;8.110;2023-07-30T14:49:00;19.80;99.90
21772;DHT22;11047;47.904;8.110;2023-07-30T14:51:27;19.70;99.90
21772;DHT22;11047;47.904;8.110;2023-07-30T14:53:54;19.90;99.90
21772;DHT22;11047;47.904;8.110;2023-07-30T14:56:21;19.70;99.90
21772;DHT22;11047;47.904;8.110;2023-07-30T14:58:48;19.90;99.90
21772;DHT22;11047;47.904;8.110;2023-07-30T15:01:16;19.90;99.90
21772;DHT22;11047;47.904;8.110;2023-07-30T15:03:43;19.70;99.90
21772;DHT22;11047;47.904;8.110;2023-07-30T15:06:11;19.80;99.90
21772;DHT22;11047;47.904;8.110;2023-07-30T15:08:38;19.60;99.90
21772;DHT22;11047;47.904;8.110;2023-07-30T15:11:05;19.50;99.90
21772;DHT22;11047;47.904;8.110;2023-07-30T15:13:32;19.60;99.90
21772;DHT22;11047;47.904;8.110;2023-07-30T15:15:59;19.40;99.90
21772;DHT22;11047;47.904;8.110;2023-07-30T15:18:27;19.20;99.90
21772;DHT22;11047;47.904;8.110;2023-07-30T15:20:54;19.20;99.90
21772;DHT22;11047;47.904;8.110;2023-07-30T15:23:21;19.60;99.90
21772;DHT22;11047;47.904;8.110;2023-07-30T15:25:48;19.70;99.90
21772;DHT22;11047;47.904;8.110;2023-07-30T15:28:16;19.70;99.90
21772;DHT22;11047;47.904;8.110;2023-07-30T15:30:43;19.70;99.90
21772;DHT22;11047;47.904;8.110;2023-07-30T15:33:10;19.40;99.90
21772;DHT22;11047;47.904;8.110;2023-07-30T15:35:39;19.20;99.90